sensor_id;sensor_type;location;lat;lon;timestamp;temperature;humidity
3086;DHT22;52812;48.960;9.108;2022-09-24T00:01:46;10.10;99.90
3086;DHT22;52812;48.960;9.108;2022-09-24T00:04:12;10.10;99.90
3086;DHT22;52812;48.960;9.108;2022-09-24T00:06:46;10.10;99.90
3086;DHT22;52812;48.960;9.108;2022-09-24T00:09:13;10.10;99.90
3086;DHT22;52812;48.960;9.108;2022-09-24T00:11:40;10.10;99.90
3086;DHT22;52812;48.960;9.108;2022-09-24T00:14:06;10.10;99.90
3086;DHT22;52812;48.960;9.108;2022-09-24T00:16:32;10.10;99.90
3086;DHT22;52812;48.960;9.108;2022-09-24T00:18:59;10.20;99.90
3086;DHT22;52812;48.960;9.108;2022-09-24T00:21:28;10.20;99.90
3086;DHT22;52812;48.960;9.108;2022-09-24T00:23:57;10.20;99.90
3086;DHT22;52812;48.960;9.108;2022-09-24T00:26:23;10.20;99.90
3086;DHT22;52812;48.960;9.108;2022-09-24T00:29:08;10.30;99.90
3086;DHT22;52812;48.960;9.108;2022-09-24T00:31:34;10.30;99.90
3086;DHT22;52812;48.960;9.108;2022-09-24T00:34:00;10.30;99.90
3086;DHT22;52812;48.960;9.108;2022-09-24T00:36:26;10.30;99.90
3086;DHT22;52812;48.960;9.108;2022-09-24T00:38:54;10.20;99.90
3086;DHT22;52812;48.960;9.108;2022-09-24T00:41:22;10.20;99.90
3086;DHT22;52812;48.960;9.108;2022-09-24T00:43:49;10.30;99.90
3086;DHT22;52812;48.960;9.108;2022-09-24T00:46:28;10.30;99.90
3086;DHT22;52812;48.960;9.108;2022-09-24T00:49:08;10.30;99.90
3086;DHT22;52812;48.960;9.108;2022-09-24T00:51:34;10.30;99.90
3086;DHT22;52812;48.960;9.108;2022-09-24T00:54:04;10.30;99.90
3086;DHT22;52812;48.960;9.108;2022-09-24T00:56:33;10.30;99.90
3086;DHT22;52812;48.960;9.108;2022-09-24T00:59:02;10.20;99.90
3086;DHT22;52812;48.960;9.108;2022-09-24T01:01:28;10.20;99.90
3086;DHT22;52812;48.960;9.108;2022-09-24T01:03:55;10.30;99.90
3086;DHT22;52812;48.960;9.108;2022-09-24T01:06:22;10.30;99.90
3086;DHT22;52812;48.960;9.108;2022-09-24T01:08:48;10.20;99.90
3086;DHT22;52812;48.960;9.108;2022-09-24T01:14:13;10.20;99.90
3086;DHT22;52812;48.960;9.108;2022-09-24T01:19:41;10.20;99.90
3086;DHT22;52812;48.960;9.108;2022-09-24T01:25:01;10.20;99.90
3086;DHT22;52812;48.960;9.108;2022-09-24T01:28:04;10.20;99.90
3086;DHT22;52812;48.960;9.108;2022-09-24T01:30:32;10.20;99.90
3086;DHT22;52812;48.960;9.108;2022-09-24T01:33:05;10.20;99.90
3086;DHT22;52812;48.960;9.108;2022-09-24T01:35:53;10.20;99.90
3086;DHT22;52812;48.960;9.108;2022-09-24T01:38:27;10.20;99.90
3086;DHT22;52812;48.960;9.108;2022-09-24T01:40:54;10.20;99.90
3086;DHT22;52812;48.960;9.108;2022-09-24T01:43:24;10.20;99.90
3086;DHT22;52812;48.960;9.108;2022-09-24T01:45:51;10.10;99.90
3086;DHT22;52812;48.960;9.108;2022-09-24T01:48:17;10.00;99.90
3086;DHT22;52812;48.960;9.108;2022-09-24T01:50:57;9.90;99.90
3086;DHT22;52812;48.960;9.108;2022-09-24T01:53:28;9.90;99.90
3086;DHT22;52812;48.960;9.108;2022-09-24T01:56:01;9.90;99.90
3086;DHT22;52812;48.960;9.108;2022-09-24T01:58:43;9.90;99.90
3086;DHT22;52812;48.960;9.108;2022-09-24T02:01:14;9.90;99.90
3086;DHT22;52812;48.960;9.108;2022-09-24T02:03:46;9.80;99.90
3086;DHT22;52812;48.960;9.108;2022-09-24T02:06:28;9.70;99.90
3086;DHT22;52812;48.960;9.108;2022-09-24T02:08:56;9.60;99.90
3086;DHT22;52812;48.960;9.108;2022-09-24T02:11:23;9.60;99.90
3086;DHT22;52812;48.960;9.108;2022-09-24T02:13:57;9.60;99.90
3086;DHT22;52812;48.960;9.108;2022-09-24T02:16:32;9.60;99.90
3086;DHT22;52812;48.960;9.108;2022-09-24T02:19:02;9.60;99.90
3086;DHT22;52812;48.960;9.108;2022-09-24T02:21:30;9.60;99.90
3086;DHT22;52812;48.960;9.108;2022-09-24T02:24:02;9.60;99.90
3086;DHT22;52812;48.960;9.108;2022-09-24T02:26:30;9.60;99.90
3086;DHT22;52812;48.960;9.108;2022-09-24T02:28:55;9.60;99.90
3086;DHT22;52812;48.960;9.108;2022-09-24T02:31:27;9.70;99.90
3086;DHT22;52812;48.960;9.108;2022-09-24T02:33:56;9.70;99.90
3086;DHT22;52812;48.960;9.108;2022-09-24T02:36:42;9.70;99.90
3086;DHT22;52812;48.960;9.108;2022-09-24T02:39:08;9.70;99.90
3086;DHT22;52812;48.960;9.108;2022-09-24T02:41:33;9.70;99.90
3086;DHT22;52812;48.960;9.108;2022-09-24T02:44:00;9.70;99.90
3086;DHT22;52812;48.960;9.108;2022-09-24T02:46:25;9.70;99.90
3086;DHT22;52812;48.960;9.108;2022-09-24T02:48:51;9.70;99.90
3086;DHT22;52812;48.960;9.108;2022-09-24T02:51:17;9.70;99.90
3086;DHT22;52812;48.960;9.108;2022-09-24T02:53:42;9.70;99.90
3086;DHT22;52812;48.960;9.108;2022-09-24T02:56:08;9.70;99.90
3086;DHT22;52812;48.960;9.108;2022-09-24T02:58:34;9.70;99.90
3086;DHT22;52812;48.960;9.108;2022-09-24T03:01:02;9.70;99.90
3086;DHT22;52812;48.960;9.108;2022-09-24T03:03:28;9.70;99.90
3086;DHT22;52812;48.960;9.108;2022-09-24T03:05:54;9.80;99.90
3086;DHT22;52812;48.960;9.108;2022-09-24T03:08:21;9.80;99.90
3086;DHT22;52812;48.960;9.108;2022-09-24T03:10:47;9.80;99.90
3086;DHT22;52812;48.960;9.108;2022-09-24T03:13:13;9.80;99.90
3086;DHT22;52812;48.960;9.108;2022-09-24T03:15:39;9.80;99.90
3086;DHT22;52812;48.960;9.108;2022-09-24T03:18:05;9.90;99.90
3086;DHT22;52812;48.960;9.108;2022-09-24T03:20:30;9.80;99.90
3086;DHT22;52812;48.960;9.108;2022-09-24T03:22:56;9.80;99.90
3086;DHT22;52812;48.960;9.108;2022-09-24T03:25:22;9.90;99.90
3086;DHT22;52812;48.960;9.108;2022-09-24T03:27:47;9.90;99.90
3086;DHT22;52812;48.960;9.108;2022-09-24T03:30:13;9.90;99.90
3086;DHT22;52812;48.960;9.108;2022-09-24T03:32:57;9.90;99.90
3086;DHT22;52812;48.960;9.108;2022-09-24T03:35:22;9.90;99.90
3086;DHT22;52812;48.960;9.108;2022-09-24T03:37:48;9.90;99.90
3086;DHT22;52812;48.960;9.108;2022-09-24T03:40:14;9.90;99.90
3086;DHT22;52812;48.960;9.108;2022-09-24T03:42:39;9.90;99.90
3086;DHT22;52812;48.960;9.108;2022-09-24T03:45:05;9.90;99.90
3086;DHT22;52812;48.960;9.108;2022-09-24T03:47:31;9.90;99.90
3086;DHT22;52812;48.960;9.108;2022-09-24T03:49:57;9.90;99.90
3086;DHT22;52812;48.960;9.108;2022-09-24T03:52:24;9.90;99.90
3086;DHT22;52812;48.960;9.108;2022-09-24T03:54:50;9.90;99.90
3086;DHT22;52812;48.960;9.108;2022-09-24T03:57:16;9.90;99.90
3086;DHT22;52812;48.960;9.108;2022-09-24T03:59:43;9.90;99.90
3086;DHT22;52812;48.960;9.108;2022-09-24T04:02:09;9.90;99.90
3086;DHT22;52812;48.960;9.108;2022-09-24T04:04:35;9.80;99.90
3086;DHT22;52812;48.960;9.108;2022-09-24T04:07:01;9.80;99.90
3086;DHT22;52812;48.960;9.108;2022-09-24T04:09:26;9.80;99.90
3086;DHT22;52812;48.960;9.108;2022-09-24T04:11:52;9.80;99.90
3086;DHT22;52812;48.960;9.108;2022-09-24T04:14:18;9.90;99.90
3086;DHT22;52812;48.960;9.108;2022-09-24T04:16:44;9.90;99.90
3086;DHT22;52812;48.960;9.108;2022-09-24T04:19:13;9.90;99.90
3086;DHT22;52812;48.960;9.108;2022-09-24T04:21:41;9.90;99.90
3086;DHT22;52812;48.960;9.108;2022-09-24T04:24:07;9.90;99.90
3086;DHT22;52812;48.960;9.108;2022-09-24T04:26:33;9.80;99.90
3086;DHT22;52812;48.960;9.108;2022-09-24T04:28:59;9.90;99.90
3086;DHT22;52812;48.960;9.108;2022-09-24T04:31:24;9.90;99.90
3086;DHT22;52812;48.960;9.108;2022-09-24T04:33:52;9.90;99.90
3086;DHT22;52812;48.960;9.108;2022-09-24T04:36:17;10.00;99.90
3086;DHT22;52812;48.960;9.108;2022-09-24T04:38:43;9.90;99.90
3086;DHT22;52812;48.960;9.108;2022-09-24T04:41:10;9.90;99.90
3086;DHT22;52812;48.960;9.108;2022-09-24T04:43:36;9.90;99.90
3086;DHT22;52812;48.960;9.108;2022-09-24T04:46:03;9.90;99.90
3086;DHT22;52812;48.960;9.108;2022-09-24T04:48:29;9.90;99.90
3086;DHT22;52812;48.960;9.108;2022-09-24T04:50:55;9.90;99.90
3086;DHT22;52812;48.960;9.108;2022-09-24T04:53:20;10.00;99.90
3086;DHT22;52812;48.960;9.108;2022-09-24T04:55:47;10.00;99.90
3086;DHT22;52812;48.960;9.108;2022-09-24T04:58:13;10.00;99.90
3086;DHT22;52812;48.960;9.108;2022-09-24T05:00:38;10.00;99.90
3086;DHT22;52812;48.960;9.108;2022-09-24T05:03:05;10.10;99.90
3086;DHT22;52812;48.960;9.108;2022-09-24T05:05:31;10.10;99.90
3086;DHT22;52812;48.960;9.108;2022-09-24T05:07:58;10.10;99.90
3086;DHT22;52812;48.960;9.108;2022-09-24T05:10:25;10.10;99.90
3086;DHT22;52812;48.960;9.108;2022-09-24T05:12:51;10.10;99.90
3086;DHT22;52812;48.960;9.108;2022-09-24T05:15:16;10.10;99.90
3086;DHT22;52812;48.960;9.108;2022-09-24T05:17:44;10.10;99.90
3086;DHT22;52812;48.960;9.108;2022-09-24T05:20:09;10.10;99.90
3086;DHT22;52812;48.960;9.108;2022-09-24T05:22:43;10.10;99.90
3086;DHT22;52812;48.960;9.108;2022-09-24T05:25:09;10.20;99.90
3086;DHT22;52812;48.960;9.108;2022-09-24T05:27:35;10.20;99.90
3086;DHT22;52812;48.960;9.108;2022-09-24T05:30:01;10.20;99.90
3086;DHT22;52812;48.960;9.108;2022-09-24T05:32:26;10.20;99.90
3086;DHT22;52812;48.960;9.108;2022-09-24T05:34:52;10.10;99.90
3086;DHT22;52812;48.960;9.108;2022-09-24T05:37:18;10.10;99.90
3086;DHT22;52812;48.960;9.108;2022-09-24T05:39:44;10.10;99.90
3086;DHT22;52812;48.960;9.108;2022-09-24T05:42:10;10.10;99.90
3086;DHT22;52812;48.960;9.108;2022-09-24T05:44:38;10.00;99.90
3086;DHT22;52812;48.960;9.108;2022-09-24T05:47:03;10.00;99.90
3086;DHT22;52812;48.960;9.108;2022-09-24T05:49:29;10.00;99.90
3086;DHT22;52812;48.960;9.108;2022-09-24T05:51:56;10.10;99.90
3086;DHT22;52812;48.960;9.108;2022-09-24T05:54:22;10.20;99.90
3086;DHT22;52812;48.960;9.108;2022-09-24T05:56:47;10.20;99.90
3086;DHT22;52812;48.960;9.108;2022-09-24T05:59:13;10.30;99.90
3086;DHT22;52812;48.960;9.108;2022-09-24T06:01:39;10.40;99.90
3086;DHT22;52812;48.960;9.108;2022-09-24T06:04:04;10.40;99.90
3086;DHT22;52812;48.960;9.108;2022-09-24T06:06:30;10.50;99.90
3086;DHT22;52812;48.960;9.108;2022-09-24T06:08:56;10.60;99.90
3086;DHT22;52812;48.960;9.108;2022-09-24T06:11:21;10.70;99.90
3086;DHT22;52812;48.960;9.108;2022-09-24T06:13:50;10.80;99.90
3086;DHT22;52812;48.960;9.108;2022-09-24T06:16:16;10.80;99.90
3086;DHT22;52812;48.960;9.108;2022-09-24T06:18:43;10.70;99.90
3086;DHT22;52812;48.960;9.108;2022-09-24T06:21:14;10.80;99.90
3086;DHT22;52812;48.960;9.108;2022-09-24T06:23:40;10.80;99.90
3086;DHT22;52812;48.960;9.108;2022-09-24T06:26:09;10.70;99.90
3086;DHT22;52812;48.960;9.108;2022-09-24T06:28:36;10.80;99.90
3086;DHT22;52812;48.960;9.108;2022-09-24T06:31:02;10.80;99.90
3086;DHT22;52812;48.960;9.108;2022-09-24T06:33:28;10.90;99.90
3086;DHT22;52812;48.960;9.108;2022-09-24T06:35:58;11.00;99.90
3086;DHT22;52812;48.960;9.108;2022-09-24T06:38:24;11.10;99.90
3086;DHT22;52812;48.960;9.108;2022-09-24T06:40:50;11.20;99.90
3086;DHT22;52812;48.960;9.108;2022-09-24T06:43:15;11.30;99.90
3086;DHT22;52812;48.960;9.108;2022-09-24T06:45:44;11.40;99.90
3086;DHT22;52812;48.960;9.108;2022-09-24T06:48:11;11.50;99.90
3086;DHT22;52812;48.960;9.108;2022-09-24T06:50:40;11.70;99.90
3086;DHT22;52812;48.960;9.108;2022-09-24T06:53:07;11.90;99.90
3086;DHT22;52812;48.960;9.108;2022-09-24T06:55:34;12.00;99.90
3086;DHT22;52812;48.960;9.108;2022-09-24T06:58:04;12.00;99.90
3086;DHT22;52812;48.960;9.108;2022-09-24T07:00:30;12.10;99.90
3086;DHT22;52812;48.960;9.108;2022-09-24T07:02:56;12.20;99.90
3086;DHT22;52812;48.960;9.108;2022-09-24T07:05:21;12.10;99.90
3086;DHT22;52812;48.960;9.108;2022-09-24T07:07:47;12.20;99.90
3086;DHT22;52812;48.960;9.108;2022-09-24T07:10:12;12.20;99.90
3086;DHT22;52812;48.960;9.108;2022-09-24T07:12:40;12.30;99.90
3086;DHT22;52812;48.960;9.108;2022-09-24T07:15:07;12.30;99.90
3086;DHT22;52812;48.960;9.108;2022-09-24T07:17:33;12.40;99.90
3086;DHT22;52812;48.960;9.108;2022-09-24T07:19:59;12.30;99.90
3086;DHT22;52812;48.960;9.108;2022-09-24T07:22:25;12.30;99.90
3086;DHT22;52812;48.960;9.108;2022-09-24T07:24:50;12.40;99.90
3086;DHT22;52812;48.960;9.108;2022-09-24T07:27:16;12.40;99.90
3086;DHT22;52812;48.960;9.108;2022-09-24T07:29:42;12.50;99.90
3086;DHT22;52812;48.960;9.108;2022-09-24T07:32:07;12.50;99.90
3086;DHT22;52812;48.960;9.108;2022-09-24T07:34:33;12.60;99.90
3086;DHT22;52812;48.960;9.108;2022-09-24T07:36:59;12.60;99.90
3086;DHT22;52812;48.960;9.108;2022-09-24T07:39:25;12.60;99.90
3086;DHT22;52812;48.960;9.108;2022-09-24T07:41:51;12.70;99.90
3086;DHT22;52812;48.960;9.108;2022-09-24T07:44:18;12.80;99.90
3086;DHT22;52812;48.960;9.108;2022-09-24T07:46:46;13.00;99.90
3086;DHT22;52812;48.960;9.108;2022-09-24T07:49:12;13.10;99.90
3086;DHT22;52812;48.960;9.108;2022-09-24T07:51:38;13.10;99.90
3086;DHT22;52812;48.960;9.108;2022-09-24T07:54:03;13.20;99.90
3086;DHT22;52812;48.960;9.108;2022-09-24T07:56:30;13.20;99.90
3086;DHT22;52812;48.960;9.108;2022-09-24T07:58:56;13.30;99.90
3086;DHT22;52812;48.960;9.108;2022-09-24T08:01:22;13.40;99.90
3086;DHT22;52812;48.960;9.108;2022-09-24T08:03:50;13.40;99.90
3086;DHT22;52812;48.960;9.108;2022-09-24T08:06:16;13.50;99.90
3086;DHT22;52812;48.960;9.108;2022-09-24T08:08:41;13.50;99.90
3086;DHT22;52812;48.960;9.108;2022-09-24T08:11:10;13.60;99.90
3086;DHT22;52812;48.960;9.108;2022-09-24T08:13:38;13.60;99.90
3086;DHT22;52812;48.960;9.108;2022-09-24T08:16:03;13.60;99.90
3086;DHT22;52812;48.960;9.108;2022-09-24T08:18:30;13.60;99.90
3086;DHT22;52812;48.960;9.108;2022-09-24T08:21:06;13.60;99.90
3086;DHT22;52812;48.960;9.108;2022-09-24T08:23:34;13.60;99.90
3086;DHT22;52812;48.960;9.108;2022-09-24T08:26:00;13.50;99.90
3086;DHT22;52812;48.960;9.108;2022-09-24T08:28:26;13.60;99.90
3086;DHT22;52812;48.960;9.108;2022-09-24T08:30:59;13.60;99.90
3086;DHT22;52812;48.960;9.108;2022-09-24T08:33:26;13.60;99.90
3086;DHT22;52812;48.960;9.108;2022-09-24T08:35:52;13.60;99.90
3086;DHT22;52812;48.960;9.108;2022-09-24T08:38:18;13.60;99.90
3086;DHT22;52812;48.960;9.108;2022-09-24T08:45:56;13.70;99.90
3086;DHT22;52812;48.960;9.108;2022-09-24T08:48:45;13.60;99.90
3086;DHT22;52812;48.960;9.108;2022-09-24T08:51:17;13.80;99.90
3086;DHT22;52812;48.960;9.108;2022-09-24T08:54:03;13.90;99.90
3086;DHT22;52812;48.960;9.108;2022-09-24T08:56:34;13.90;99.90
3086;DHT22;52812;48.960;9.108;2022-09-24T08:59:05;14.00;99.90
3086;DHT22;52812;48.960;9.108;2022-09-24T09:04:38;14.00;99.90
3086;DHT22;52812;48.960;9.108;2022-09-24T09:09:57;14.10;99.90
3086;DHT22;52812;48.960;9.108;2022-09-24T09:12:33;14.20;99.90
3086;DHT22;52812;48.960;9.108;2022-09-24T09:15:09;14.20;99.90
3086;DHT22;52812;48.960;9.108;2022-09-24T09:17:56;14.40;99.90
3086;DHT22;52812;48.960;9.108;2022-09-24T09:20:35;14.40;99.90
3086;DHT22;52812;48.960;9.108;2022-09-24T09:23:20;14.40;99.90
3086;DHT22;52812;48.960;9.108;2022-09-24T09:25:58;14.50;99.90
3086;DHT22;52812;48.960;9.108;2022-09-24T09:28:28;14.70;99.90
3086;DHT22;52812;48.960;9.108;2022-09-24T09:44:19;15.60;99.90
3086;DHT22;52812;48.960;9.108;2022-09-24T09:46:59;15.60;99.90
3086;DHT22;52812;48.960;9.108;2022-09-24T09:49:32;15.50;99.90
3086;DHT22;52812;48.960;9.108;2022-09-24T09:52:01;15.30;99.90
3086;DHT22;52812;48.960;9.108;2022-09-24T09:54:38;15.30;99.90
3086;DHT22;52812;48.960;9.108;2022-09-24T09:57:06;15.40;99.90
3086;DHT22;52812;48.960;9.108;2022-09-24T09:59:37;15.40;99.90
3086;DHT22;52812;48.960;9.108;2022-09-24T10:02:09;15.40;99.90
3086;DHT22;52812;48.960;9.108;2022-09-24T10:04:38;15.60;99.90
3086;DHT22;52812;48.960;9.108;2022-09-24T10:07:16;15.70;99.90
3086;DHT22;52812;48.960;9.108;2022-09-24T10:09:42;15.60;99.90
3086;DHT22;52812;48.960;9.108;2022-09-24T10:12:18;15.60;99.90
3086;DHT22;52812;48.960;9.108;2022-09-24T10:17:25;15.80;99.90
3086;DHT22;52812;48.960;9.108;2022-09-24T10:19:51;15.90;99.90
3086;DHT22;52812;48.960;9.108;2022-09-24T10:22:23;15.90;99.90
3086;DHT22;52812;48.960;9.108;2022-09-24T10:24:52;16.10;99.90
3086;DHT22;52812;48.960;9.108;2022-09-24T10:29:53;16.20;99.90
3086;DHT22;52812;48.960;9.108;2022-09-24T10:32:39;16.10;99.90
3086;DHT22;52812;48.960;9.108;2022-09-24T10:35:25;16.20;99.90
3086;DHT22;52812;48.960;9.108;2022-09-24T10:37:56;16.20;99.90
3086;DHT22;52812;48.960;9.108;2022-09-24T10:40:29;16.20;99.90
3086;DHT22;52812;48.960;9.108;2022-09-24T10:43:03;16.30;99.90
3086;DHT22;52812;48.960;9.108;2022-09-24T10:48:55;16.50;99.90
3086;DHT22;52812;48.960;9.108;2022-09-24T10:51:26;16.70;99.90
3086;DHT22;52812;48.960;9.108;2022-09-24T10:54:16;17.20;99.90
3086;DHT22;52812;48.960;9.108;2022-09-24T10:56:49;17.50;99.90
3086;DHT22;52812;48.960;9.108;2022-09-24T10:59:38;17.60;99.90
3086;DHT22;52812;48.960;9.108;2022-09-24T11:05:04;17.40;99.90
3086;DHT22;52812;48.960;9.108;2022-09-24T11:07:41;17.40;99.90
3086;DHT22;52812;48.960;9.108;2022-09-24T11:10:22;17.50;99.90
3086;DHT22;52812;48.960;9.108;2022-09-24T11:21:47;17.70;99.90
3086;DHT22;52812;48.960;9.108;2022-09-24T11:37:21;17.90;99.90
3086;DHT22;52812;48.960;9.108;2022-09-24T11:40:12;18.00;99.90
3086;DHT22;52812;48.960;9.108;2022-09-24T11:43:03;18.00;99.90
3086;DHT22;52812;48.960;9.108;2022-09-24T11:46:25;17.90;99.90
3086;DHT22;52812;48.960;9.108;2022-09-24T11:48:58;17.70;99.90
3086;DHT22;52812;48.960;9.108;2022-09-24T11:52:46;17.50;99.90
3086;DHT22;52812;48.960;9.108;2022-09-24T11:54:52;17.60;99.90
3086;DHT22;52812;48.960;9.108;2022-09-24T11:57:26;17.50;99.90
3086;DHT22;52812;48.960;9.108;2022-09-24T12:00:10;17.50;99.90
3086;DHT22;52812;48.960;9.108;2022-09-24T12:02:44;17.40;99.90
3086;DHT22;52812;48.960;9.108;2022-09-24T12:05:27;17.30;99.90
3086;DHT22;52812;48.960;9.108;2022-09-24T12:13:54;16.70;99.90
3086;DHT22;52812;48.960;9.108;2022-09-24T12:16:25;16.60;99.90
3086;DHT22;52812;48.960;9.108;2022-09-24T12:18:55;16.50;99.90
3086;DHT22;52812;48.960;9.108;2022-09-24T12:21:32;16.30;99.90
3086;DHT22;52812;48.960;9.108;2022-09-24T12:24:03;16.20;99.90
3086;DHT22;52812;48.960;9.108;2022-09-24T12:26:35;16.00;99.90
3086;DHT22;52812;48.960;9.108;2022-09-24T12:29:29;15.90;99.90
3086;DHT22;52812;48.960;9.108;2022-09-24T12:32:43;15.70;99.90
3086;DHT22;52812;48.960;9.108;2022-09-24T12:35:36;15.60;99.90
3086;DHT22;52812;48.960;9.108;2022-09-24T12:38:19;15.60;99.90
3086;DHT22;52812;48.960;9.108;2022-09-24T12:43:46;15.30;99.90
3086;DHT22;52812;48.960;9.108;2022-09-24T12:46:30;15.30;99.90
3086;DHT22;52812;48.960;9.108;2022-09-24T12:48:57;15.30;99.90
3086;DHT22;52812;48.960;9.108;2022-09-24T12:51:23;15.20;99.90
3086;DHT22;52812;48.960;9.108;2022-09-24T12:54:05;15.20;99.90
3086;DHT22;52812;48.960;9.108;2022-09-24T12:56:31;15.20;99.90
3086;DHT22;52812;48.960;9.108;2022-09-24T12:58:57;15.10;99.90
3086;DHT22;52812;48.960;9.108;2022-09-24T13:06:33;15.30;99.90
3086;DHT22;52812;48.960;9.108;2022-09-24T13:08:59;15.30;99.90
3086;DHT22;52812;48.960;9.108;2022-09-24T13:11:32;15.40;99.90
3086;DHT22;52812;48.960;9.108;2022-09-24T13:16:41;15.40;99.90
3086;DHT22;52812;48.960;9.108;2022-09-24T13:21:55;15.50;99.90
3086;DHT22;52812;48.960;9.108;2022-09-24T13:24:32;15.70;99.90
3086;DHT22;52812;48.960;9.108;2022-09-24T13:27:18;15.70;99.90
3086;DHT22;52812;48.960;9.108;2022-09-24T13:29:46;15.60;99.90
3086;DHT22;52812;48.960;9.108;2022-09-24T13:32:17;15.50;99.90
3086;DHT22;52812;48.960;9.108;2022-09-24T13:34:44;15.40;99.90
3086;DHT22;52812;48.960;9.108;2022-09-24T13:37:21;15.40;99.90
3086;DHT22;52812;48.960;9.108;2022-09-24T13:40:05;15.40;99.90
3086;DHT22;52812;48.960;9.108;2022-09-24T13:42:36;15.40;99.90
3086;DHT22;52812;48.960;9.108;2022-09-24T13:45:05;15.50;99.90
3086;DHT22;52812;48.960;9.108;2022-09-24T13:47:41;15.60;99.90
3086;DHT22;52812;48.960;9.108;2022-09-24T13:50:13;15.60;99.90
3086;DHT22;52812;48.960;9.108;2022-09-24T13:55:44;15.70;99.90
3086;DHT22;52812;48.960;9.108;2022-09-24T13:58:30;15.80;99.90
3086;DHT22;52812;48.960;9.108;2022-09-24T14:01:01;15.90;99.90
3086;DHT22;52812;48.960;9.108;2022-09-24T14:03:29;15.90;99.90
3086;DHT22;52812;48.960;9.108;2022-09-24T14:05:58;16.00;99.90
3086;DHT22;52812;48.960;9.108;2022-09-24T14:08:24;16.00;99.90
3086;DHT22;52812;48.960;9.108;2022-09-24T14:11:10;16.00;99.90
3086;DHT22;52812;48.960;9.108;2022-09-24T14:13:37;16.10;99.90
3086;DHT22;52812;48.960;9.108;2022-09-24T14:16:31;16.00;99.90
3086;DHT22;52812;48.960;9.108;2022-09-24T14:19:04;15.90;99.90
3086;DHT22;52812;48.960;9.108;2022-09-24T14:21:51;15.90;99.90
3086;DHT22;52812;48.960;9.108;2022-09-24T14:24:33;16.00;99.90
3086;DHT22;52812;48.960;9.108;2022-09-24T14:29:59;15.90;99.90
3086;DHT22;52812;48.960;9.108;2022-09-24T14:32:38;15.90;99.90
3086;DHT22;52812;48.960;9.108;2022-09-24T14:38:05;15.90;99.90
3086;DHT22;52812;48.960;9.108;2022-09-24T14:40:44;15.80;99.90
3086;DHT22;52812;48.960;9.108;2022-09-24T14:46:05;15.90;99.90
3086;DHT22;52812;48.960;9.108;2022-09-24T14:48:34;15.90;99.90
3086;DHT22;52812;48.960;9.108;2022-09-24T14:51:00;15.90;99.90
3086;DHT22;52812;48.960;9.108;2022-09-24T14:53:31;15.90;99.90
3086;DHT22;52812;48.960;9.108;2022-09-24T14:55:59;15.80;99.90
3086;DHT22;52812;48.960;9.108;2022-09-24T15:01:00;15.70;99.90
3086;DHT22;52812;48.960;9.108;2022-09-24T15:06:12;15.90;99.90
3086;DHT22;52812;48.960;9.108;2022-09-24T15:08:40;15.80;99.90
3086;DHT22;52812;48.960;9.108;2022-09-24T15:11:06;15.90;99.90
3086;DHT22;52812;48.960;9.108;2022-09-24T15:13:39;15.90;99.90
3086;DHT22;52812;48.960;9.108;2022-09-24T15:16:16;15.90;99.90
3086;DHT22;52812;48.960;9.108;2022-09-24T15:18:42;15.90;99.90
3086;DHT22;52812;48.960;9.108;2022-09-24T15:21:08;15.80;99.90
3086;DHT22;52812;48.960;9.108;2022-09-24T15:23:35;15.80;99.90
3086;DHT22;52812;48.960;9.108;2022-09-24T15:26:01;15.90;99.90
3086;DHT22;52812;48.960;9.108;2022-09-24T15:28:27;15.80;99.90
3086;DHT22;52812;48.960;9.108;2022-09-24T15:30:54;15.80;99.90
3086;DHT22;52812;48.960;9.108;2022-09-24T15:33:21;15.70;99.90
3086;DHT22;52812;48.960;9.108;2022-09-24T15:35:46;15.70;99.90
3086;DHT22;52812;48.960;9.108;2022-09-24T15:38:17;15.70;99.90
3086;DHT22;52812;48.960;9.108;2022-09-24T15:40:43;15.60;99.90
3086;DHT22;52812;48.960;9.108;2022-09-24T15:43:18;15.60;99.90
3086;DHT22;52812;48.960;9.108;2022-09-24T15:45:44;15.70;99.90
3086;DHT22;52812;48.960;9.108;2022-09-24T15:48:10;15.60;99.90
3086;DHT22;52812;48.960;9.108;2022-09-24T15:50:41;15.60;99.90
3086;DHT22;52812;48.960;9.108;2022-09-24T15:53:15;15.50;99.90
3086;DHT22;52812;48.960;9.108;2022-09-24T15:55:41;15.50;99.90
3086;DHT22;52812;48.960;9.108;2022-09-24T15:58:11;15.50;99.90
3086;DHT22;52812;48.960;9.108;2022-09-24T16:00:38;15.50;99.90
3086;DHT22;52812;48.960;9.108;2022-09-24T16:03:04;15.50;99.90
3086;DHT22;52812;48.960;9.108;2022-09-24T16:05:30;15.40;99.90
3086;DHT22;52812;48.960;9.108;2022-09-24T16:07:56;15.50;99.90
3086;DHT22;52812;48.960;9.108;2022-09-24T16:10:22;15.50;99.90
3086;DHT22;52812;48.960;9.108;2022-09-24T16:12:47;15.50;99.90
3086;DHT22;52812;48.960;9.108;2022-09-24T16:15:14;15.40;99.90
3086;DHT22;52812;48.960;9.108;2022-09-24T16:17:40;15.40;99.90
3086;DHT22;52812;48.960;9.108;2022-09-24T16:20:07;15.40;99.90
3086;DHT22;52812;48.960;9.108;2022-09-24T16:22:34;15.40;99.90
3086;DHT22;52812;48.960;9.108;2022-09-24T16:24:59;15.30;99.90
3086;DHT22;52812;48.960;9.108;2022-09-24T16:27:25;15.30;99.90
3086;DHT22;52812;48.960;9.108;2022-09-24T16:29:50;15.30;99.90
3086;DHT22;52812;48.960;9.108;2022-09-24T16:32:16;15.30;99.90
3086;DHT22;52812;48.960;9.108;2022-09-24T16:34:41;15.30;99.90
3086;DHT22;52812;48.960;9.108;2022-09-24T16:37:08;15.30;99.90
3086;DHT22;52812;48.960;9.108;2022-09-24T16:39:33;15.30;99.90
3086;DHT22;52812;48.960;9.108;2022-09-24T16:41:59;15.20;99.90
3086;DHT22;52812;48.960;9.108;2022-09-24T16:44:25;15.20;99.90
3086;DHT22;52812;48.960;9.108;2022-09-24T16:46:50;15.20;99.90
3086;DHT22;52812;48.960;9.108;2022-09-24T16:49:16;15.10;99.90
3086;DHT22;52812;48.960;9.108;2022-09-24T16:51:41;15.00;99.90
3086;DHT22;52812;48.960;9.108;2022-09-24T16:54:07;15.00;99.90
3086;DHT22;52812;48.960;9.108;2022-09-24T16:56:33;14.90;99.90
3086;DHT22;52812;48.960;9.108;2022-09-24T16:58:59;14.80;99.90
3086;DHT22;52812;48.960;9.108;2022-09-24T17:01:24;14.70;99.90
3086;DHT22;52812;48.960;9.108;2022-09-24T17:03:52;14.50;99.90
3086;DHT22;52812;48.960;9.108;2022-09-24T17:06:24;14.50;99.90
3086;DHT22;52812;48.960;9.108;2022-09-24T17:08:50;14.40;99.90
3086;DHT22;52812;48.960;9.108;2022-09-24T17:11:35;14.40;99.90
3086;DHT22;52812;48.960;9.108;2022-09-24T17:14:01;14.40;99.90
3086;DHT22;52812;48.960;9.108;2022-09-24T17:16:28;14.40;99.90
3086;DHT22;52812;48.960;9.108;2022-09-24T17:18:53;14.40;99.90
3086;DHT22;52812;48.960;9.108;2022-09-24T17:21:20;14.40;99.90
3086;DHT22;52812;48.960;9.108;2022-09-24T17:23:46;14.40;99.90
3086;DHT22;52812;48.960;9.108;2022-09-24T17:26:15;14.30;99.90
3086;DHT22;52812;48.960;9.108;2022-09-24T17:28:43;14.30;99.90
3086;DHT22;52812;48.960;9.108;2022-09-24T17:31:11;14.30;99.90
3086;DHT22;52812;48.960;9.108;2022-09-24T17:33:37;14.30;99.90
3086;DHT22;52812;48.960;9.108;2022-09-24T17:36:05;14.30;99.90
3086;DHT22;52812;48.960;9.108;2022-09-24T17:38:31;14.30;99.90
3086;DHT22;52812;48.960;9.108;2022-09-24T17:40:59;14.30;99.90
3086;DHT22;52812;48.960;9.108;2022-09-24T17:43:26;14.30;99.90
3086;DHT22;52812;48.960;9.108;2022-09-24T17:46:03;14.20;99.90
3086;DHT22;52812;48.960;9.108;2022-09-24T17:48:32;14.20;99.90
3086;DHT22;52812;48.960;9.108;2022-09-24T17:51:01;14.10;99.90